Time;durP1;ratioP1;P1;durP2;ratioP2;P2;SDS_P1;SDS_P2;PMS_P1;PMS_P2;Temp;Humidity;BMP_temperature;BMP_pressure;BME280_temperature;BME280_humidity;BME280_pressure;Samples;Min_cycle;Max_cycle;Signal;HPM_P1;HPM_P2
2022/08/12 00:43:58;;;;;;;4.60;2.60;;;17.50;99.90;;;;;;5056100;28;20047;-81
2022/08/12 00:46:37;;;;;;;3.85;1.88;;;17.50;99.90;;;;;;5041728;28;20166;-80
2022/08/12 00:49:03;;;;;;;3.83;1.88;;;17.50;99.90;;;;;;5058507;28;20041;-80
2022/08/12 00:54:14;;;;;;;4.30;2.10;;;17.40;99.90;;;;;;5058793;28;20040;-79
2022/08/12 00:56:41;;;;;;;3.20;1.73;;;17.40;99.90;;;;;;5058074;28;20055;-79
2022/08/12 00:59:09;;;;;;;3.35;1.98;;;17.40;99.90;;;;;;5040614;28;20039;-79
2022/08/12 01:01:36;;;;;;;5.55;2.58;;;17.40;99.90;;;;;;5057554;28;20048;-79
2022/08/12 01:12:40;;;;;;;5.60;2.60;;;17.30;99.90;;;;;;5022150;28;20091;-81
2022/08/12 01:15:06;;;;;;;6.40;2.90;;;17.30;99.90;;;;;;5038045;28;20040;-81
2022/08/12 01:17:32;;;;;;;5.45;3.25;;;17.20;99.90;;;;;;5038096;28;20124;-81
2022/08/12 01:20:04;;;;;;;3.13;2.03;;;17.20;99.90;;;;;;5037988;28;20055;-81
2022/08/12 01:22:54;;;;;;;3.88;2.10;;;17.20;99.90;;;;;;5021376;28;20041;-81
2022/08/12 01:25:23;;;;;;;3.97;2.10;;;17.20;99.90;;;;;;5054587;28;20044;-81
2022/08/12 01:27:51;;;;;;;5.05;2.60;;;17.10;99.90;;;;;;5057703;28;20032;-81
2022/08/12 01:30:18;;;;;;;3.67;1.90;;;17.10;99.90;;;;;;5040497;28;20076;-81
2022/08/12 01:32:46;;;;;;;4.50;2.33;;;17.10;99.90;;;;;;5056823;28;20494;-81
2022/08/12 01:35:16;;;;;;;4.07;2.30;;;17.10;99.90;;;;;;5041297;28;20429;-81
2022/08/12 01:37:45;;;;;;;3.72;2.13;;;17.00;99.90;;;;;;5057681;28;20127;-80
2022/08/12 01:40:12;;;;;;;2.63;1.75;;;17.00;99.90;;;;;;5057528;28;20478;-79
2022/08/12 01:42:49;;;;;;;3.08;1.73;;;17.00;99.90;;;;;;5041076;28;20047;-79
2022/08/12 01:45:16;;;;;;;3.88;2.08;;;16.90;99.90;;;;;;5040148;28;20049;-80
2022/08/12 01:48:12;;;;;;;3.53;1.95;;;16.90;99.90;;;;;;5053980;28;20508;-80
2022/08/12 01:51:08;;;;;;;3.00;1.90;;;16.90;99.90;;;;;;5054097;28;20123;-80
2022/08/12 01:53:49;;;;;;;3.95;2.35;;;16.80;99.90;;;;;;5054273;28;20049;-81
2022/08/12 01:56:16;;;;;;;3.92;2.13;;;16.80;99.90;;;;;;5037213;28;20390;-82
2022/08/12 02:01:33;;;;;;;5.38;2.55;;;16.80;99.90;;;;;;5022859;28;20041;-81
2022/08/12 02:13:30;;;;;;;3.00;1.90;;;16.70;99.90;;;;;;5057118;28;20055;-81
2022/08/12 02:16:03;;;;;;;3.25;1.70;;;16.70;99.90;;;;;;5053793;28;20398;-81
2022/08/12 02:18:57;;;;;;;3.55;2.10;;;16.70;99.90;;;;;;5040049;28;20123;-81
2022/08/12 02:21:46;;;;;;;4.30;2.30;;;16.60;99.90;;;;;;5040121;28;20112;-81
2022/08/12 02:24:20;;;;;;;3.90;2.22;;;16.60;99.90;;;;;;5056890;28;20051;-81
2022/08/12 02:26:48;;;;;;;3.42;1.80;;;16.50;99.90;;;;;;5056430;28;20048;-81
2022/08/12 02:29:14;;;;;;;4.88;2.60;;;16.50;99.90;;;;;;5056835;28;20431;-81
2022/08/12 02:31:45;;;;;;;4.95;2.58;;;16.50;99.90;;;;;;5056450;28;20421;-80
2022/08/12 02:34:15;;;;;;;6.18;2.50;;;16.50;99.90;;;;;;5056560;28;20455;-81
2022/08/12 02:36:44;;;;;;;5.47;2.30;;;16.50;99.90;;;;;;5056313;28;20045;-81
2022/08/12 02:39:14;;;;;;;5.35;2.72;;;16.50;99.90;;;;;;5039752;28;20044;-81
2022/08/12 02:41:44;;;;;;;3.15;1.98;;;16.50;99.90;;;;;;5039524;28;20040;-81
2022/08/12 02:44:14;;;;;;;4.30;2.40;;;16.40;99.90;;;;;;5038299;28;20378;-80
2022/08/12 02:46:47;;;;;;;5.28;2.67;;;16.40;99.90;;;;;;5026258;28;20072;-80
2022/08/12 02:49:22;;;;;;;5.63;2.25;;;16.40;99.90;;;;;;5036881;28;20120;-80
2022/08/12 02:51:49;;;;;;;5.32;2.90;;;16.40;99.90;;;;;;5036022;28;20458;-80
2022/08/12 02:54:14;;;;;;;3.58;2.17;;;16.40;99.90;;;;;;5003602;28;20040;-80
2022/08/12 02:56:41;;;;;;;3.67;2.22;;;16.30;99.90;;;;;;5019949;28;20041;-80
2022/08/12 02:59:10;;;;;;;3.08;1.90;;;16.40;99.90;;;;;;5003449;28;20051;-80
2022/08/12 03:01:47;;;;;;;4.18;2.03;;;16.30;99.90;;;;;;5036070;28;20057;-81
2022/08/12 03:04:25;;;;;;;4.85;2.25;;;16.30;99.90;;;;;;5035822;28;20049;-81
2022/08/12 03:07:29;;;;;;;5.72;2.33;;;16.30;99.90;;;;;;5052316;28;20040;-82
2022/08/12 03:10:04;;;;;;;4.28;2.20;;;16.30;99.90;;;;;;5035246;28;20487;-82
2022/08/12 03:12:42;;;;;;;4.35;2.30;;;16.30;99.90;;;;;;5055577;28;20406;-82
2022/08/12 03:15:14;;;;;;;3.75;2.08;;;16.30;99.90;;;;;;5048241;28;20116;-82
2022/08/12 03:17:43;;;;;;;3.55;1.92;;;16.30;99.90;;;;;;5035453;28;20041;-81
2022/08/12 03:20:13;;;;;;;4.15;2.33;;;16.20;99.90;;;;;;5035126;28;20123;-81
2022/08/12 03:22:41;;;;;;;3.40;2.05;;;16.20;99.90;;;;;;5035343;28;20044;-82
2022/08/12 03:25:23;;;;;;;3.75;2.20;;;16.20;99.90;;;;;;5024716;28;20547;-81
2022/08/12 03:27:54;;;;;;;2.90;1.73;;;16.20;99.90;;;;;;5050426;28;20490;-81
2022/08/12 03:30:23;;;;;;;3.47;2.10;;;16.20;99.90;;;;;;5028262;28;20047;-82
2022/08/12 03:32:50;;;;;;;4.28;2.25;;;16.20;99.90;;;;;;5054647;28;20127;-82
2022/08/12 03:35:26;;;;;;;3.33;1.70;;;16.20;99.90;;;;;;5055629;28;20041;-81
2022/08/12 03:37:57;;;;;;;4.50;2.37;;;16.20;99.90;;;;;;5055156;28;20037;-82
2022/08/12 04:02:43;;;;;;;3.20;2.10;;;16.10;99.90;;;;;;5047974;28;20049;-81
2022/08/12 04:05:12;;;;;;;4.93;2.90;;;16.00;99.90;;;;;;5055880;28;20071;-81
2022/08/12 04:07:39;;;;;;;4.78;2.47;;;16.00;99.90;;;;;;5056444;28;20037;-80
2022/08/12 04:10:06;;;;;;;3.22;2.00;;;16.00;99.90;;;;;;5055921;28;20076;-80
2022/08/12 04:15:21;;;;;;;3.20;1.98;;;15.90;99.90;;;;;;5047353;28;20498;-80
2022/08/12 04:17:48;;;;;;;3.25;2.03;;;15.90;99.90;;;;;;5036713;28;20045;-80
2022/08/12 04:20:18;;;;;;;5.47;2.72;;;15.90;99.90;;;;;;5056225;28;20387;-80
2022/08/12 04:22:45;;;;;;;7.15;3.10;;;15.90;99.90;;;;;;5055660;28;20069;-80
2022/08/12 04:25:11;;;;;;;3.38;2.10;;;15.90;99.90;;;;;;5055943;28;20120;-81
2022/08/12 04:27:38;;;;;;;2.83;1.85;;;15.90;99.90;;;;;;5029223;28;20037;-81
2022/08/12 04:30:06;;;;;;;5.03;2.58;;;16.00;99.90;;;;;;5055430;28;20185;-81
2022/08/12 04:32:34;;;;;;;3.50;2.33;;;16.00;99.90;;;;;;5055462;28;20056;-81
2022/08/12 04:35:00;;;;;;;5.22;2.00;;;16.00;99.90;;;;;;5055481;28;20037;-81
2022/08/12 04:37:25;;;;;;;4.65;2.40;;;16.00;99.90;;;;;;5038701;28;20072;-81
2022/08/12 04:39:52;;;;;;;3.72;2.10;;;16.00;99.90;;;;;;5038769;28;20364;-81
2022/08/12 04:42:19;;;;;;;4.53;2.42;;;16.10;99.90;;;;;;5055665;28;20037;-81
2022/08/12 04:44:44;;;;;;;4.40;2.20;;;16.10;99.90;;;;;;5055530;28;20069;-81
2022/08/12 04:47:15;;;;;;;4.10;2.28;;;16.10;99.90;;;;;;5038541;28;20458;-81
2022/08/12 04:49:43;;;;;;;4.85;2.40;;;16.10;99.90;;;;;;5038969;28;20047;-81
2022/08/12 04:52:10;;;;;;;3.05;1.90;;;16.10;99.90;;;;;;5038898;28;20445;-81
2022/08/12 04:54:36;;;;;;;4.82;2.20;;;16.20;99.90;;;;;;5054994;28;20089;-81
2022/08/12 04:57:03;;;;;;;4.20;2.15;;;16.20;99.90;;;;;;5054796;28;20041;-82
2022/08/12 04:59:30;;;;;;;4.30;2.22;;;16.20;99.90;;;;;;5038758;28;20044;-82
2022/08/12 05:01:58;;;;;;;3.75;2.35;;;16.30;99.90;;;;;;5054533;28;20064;-81
2022/08/12 05:04:26;;;;;;;5.63;2.30;;;16.30;99.90;;;;;;5038426;28;20041;-82
2022/08/12 05:06:52;;;;;;;4.45;2.00;;;16.50;99.90;;;;;;5054365;28;20060;-82
2022/08/12 05:09:18;;;;;;;5.05;2.95;;;16.70;99.90;;;;;;5054578;28;20483;-81
2022/08/12 05:11:48;;;;;;;4.55;2.53;;;16.80;99.90;;;;;;5058048;28;20084;-82
2022/08/12 05:14:14;;;;;;;5.20;2.30;;;17.30;99.90;;;;;;5057836;28;20543;-82
2022/08/12 05:16:40;;;;;;;4.38;2.70;;;17.50;99.90;;;;;;5057956;28;20051;-82
2022/08/12 05:19:06;;;;;;;5.32;2.65;;;17.90;99.90;;;;;;5057935;28;20048;-82
2022/08/12 05:21:32;;;;;;;6.88;3.28;;;18.30;99.90;;;;;;5058230;28;20127;-82
2022/08/12 05:23:59;;;;;;;5.03;2.83;;;18.20;99.90;;;;;;5057467;28;20608;-82
2022/08/12 05:26:25;;;;;;;5.22;2.60;;;18.10;99.90;;;;;;5054962;28;20154;-82
2022/08/12 05:28:52;;;;;;;4.63;2.38;;;18.00;99.90;;;;;;5038027;28;20055;-82
2022/08/12 05:31:19;;;;;;;9.85;2.97;;;17.80;99.90;;;;;;5041931;28;20040;-82
2022/08/12 05:33:46;;;;;;;5.10;2.70;;;17.80;99.90;;;;;;5057774;28;20080;-82
2022/08/12 05:36:14;;;;;;;6.50;3.08;;;17.80;99.90;;;;;;5057565;28;20045;-82
2022/08/12 05:38:56;;;;;;;4.60;2.55;;;17.80;99.90;;;;;;5057698;28;20382;-82
2022/08/12 05:41:31;;;;;;;4.40;2.10;;;17.90;99.90;;;;;;5040912;28;20062;-82
2022/08/12 05:44:04;;;;;;;5.30;3.45;;;17.90;99.90;;;;;;5054826;28;20040;-82
2022/08/12 05:46:31;;;;;;;5.88;2.75;;;17.90;99.90;;;;;;5057084;28;20083;-80
2022/08/12 05:49:00;;;;;;;4.45;2.40;;;18.00;99.90;;;;;;5057642;28;20402;-80
2022/08/12 05:51:29;;;;;;;4.30;2.08;;;18.00;99.90;;;;;;5040904;28;20086;-80
2022/08/12 05:53:57;;;;;;;3.38;2.15;;;18.00;99.90;;;;;;5040895;28;20127;-80
2022/08/12 05:56:25;;;;;;;4.57;2.30;;;18.10;99.90;;;;;;5040128;28;20037;-80
2022/08/12 05:58:52;;;;;;;4.50;2.65;;;18.10;99.90;;;;;;5057150;28;20043;-80
2022/08/12 06:01:19;;;;;;;4.88;3.05;;;18.20;99.90;;;;;;5056557;28;20044;-80
2022/08/12 06:03:45;;;;;;;5.40;3.35;;;18.60;99.90;;;;;;5040845;28;20053;-81
2022/08/12 06:06:15;;;;;;;4.25;2.60;;;19.50;99.90;;;;;;5056926;28;20360;-81
2022/08/12 06:08:52;;;;;;;6.00;3.03;;;21.20;99.90;;;;;;5040703;28;20032;-81
2022/08/12 06:11:19;;;;;;;7.63;3.00;;;22.70;99.90;;;;;;5051771;28;20496;-81
2022/08/12 06:13:44;;;;;;;5.03;3.03;;;24.00;99.90;;;;;;5036988;28;20136;-81
2022/08/12 06:18:46;;;;;;;4.55;2.63;;;25.80;99.90;;;;;;5053013;28;20069;-80
2022/08/12 06:21:15;;;;;;;6.97;2.50;;;26.80;99.90;;;;;;5036975;28;20041;-80
2022/08/12 06:23:42;;;;;;;5.68;2.55;;;27.30;99.90;;;;;;5036976;28;20098;-80
2022/08/12 06:26:10;;;;;;;5.32;2.22;;;27.80;97.00;;;;;;5036519;28;20045;-80
2022/08/12 06:28:43;;;;;;;3.25;1.90;;;28.10;97.70;;;;;;5017014;28;20494;-80
2022/08/12 06:31:14;;;;;;;3.42;2.20;;;28.70;96.00;;;;;;5069801;28;20040;-80
2022/08/12 06:33:43;;;;;;;5.00;2.20;;;29.10;95.20;;;;;;5037081;28;20049;-80
2022/08/12 06:36:09;;;;;;;5.00;2.40;;;29.20;94.40;;;;;;5003867;28;20041;-80
2022/08/12 06:38:35;;;;;;;3.72;1.88;;;29.90;93.60;;;;;;5051637;28;20037;-80
2022/08/12 06:43:50;;;;;;;3.50;1.75;;;31.10;92.30;;;;;;5016591;28;20045;-80
2022/08/12 06:46:16;;;;;;;4.78;2.03;;;31.40;91.00;;;;;;5033275;28;20045;-80
2022/08/12 06:48:42;;;;;;;4.03;2.10;;;31.70;90.80;;;;;;5000601;28;20085;-80
2022/08/12 06:51:09;;;;;;;11.10;1.95;;;32.20;87.90;;;;;;5033200;28;20122;-80
2022/08/12 06:53:35;;;;;;;1.70;1.40;;;32.20;88.90;;;;;;5033226;28;20045;-80
2022/08/12 06:56:01;;;;;;;2.28;1.73;;;32.60;89.60;;;;;;5019154;28;20037;-79
2022/08/12 06:58:29;;;;;;;4.28;2.35;;;32.90;86.80;;;;;;5019503;28;20044;-79
2022/08/12 07:00:57;;;;;;;3.85;1.63;;;33.00;86.00;;;;;;5019233;28;20482;-79
2022/08/12 07:03:26;;;;;;;3.10;1.77;;;33.20;84.50;;;;;;5036145;28;20544;-80
2022/08/12 07:06:00;;;;;;;2.65;1.67;;;33.60;85.10;;;;;;5036274;28;20410;-80
2022/08/12 07:08:28;;;;;;;1.90;1.30;;;33.90;83.80;;;;;;5038486;28;20044;-79
2022/08/12 07:10:58;;;;;;;3.47;1.88;;;34.50;81.50;;;;;;5039661;28;20033;-79
2022/08/12 07:13:37;;;;;;;2.10;1.52;;;34.30;79.00;;;;;;5039379;28;20052;-79
2022/08/12 07:16:06;;;;;;;2.38;1.60;;;33.80;78.80;;;;;;5041432;28;20444;-78
2022/08/12 07:18:32;;;;;;;3.55;1.75;;;34.40;80.70;;;;;;5035780;28;20053;-78
2022/08/12 07:21:02;;;;;;;3.42;1.52;;;34.20;79.50;;;;;;5035867;28;20379;-78
2022/08/12 07:23:29;;;;;;;2.63;1.50;;;34.40;79.90;;;;;;5036003;28;20097;-79
2022/08/12 07:25:56;;;;;;;2.70;1.58;;;34.40;78.30;;;;;;5050251;28;20044;-79
2022/08/12 07:28:24;;;;;;;2.00;1.38;;;34.80;78.10;;;;;;5045986;28;20505;-79
2022/08/12 07:30:54;;;;;;;4.85;1.48;;;34.70;78.10;;;;;;5018226;28;20045;-79
2022/08/12 07:33:22;;;;;;;1.65;1.02;;;35.30;76.80;;;;;;5054451;28;20080;-79
2022/08/12 07:35:51;;;;;;;3.28;1.60;;;35.70;77.20;;;;;;5038475;28;20041;-79
2022/08/12 07:38:24;;;;;;;2.17;1.48;;;36.00;74.60;;;;;;5055396;28;20094;-79
2022/08/12 07:41:21;;;;;;;2.85;1.60;;;35.60;74.90;;;;;;5055179;28;20486;-79
2022/08/12 07:43:48;;;;;;;2.80;1.77;;;36.10;74.20;;;;;;5055424;28;20123;-79
2022/08/12 07:46:19;;;;;;;3.90;1.55;;;36.50;73.10;;;;;;5031668;28;20045;-78
2022/08/12 07:48:48;;;;;;;4.15;1.35;;;36.60;74.50;;;;;;5046782;28;20041;-78
2022/08/12 07:51:14;;;;;;;5.47;1.80;;;37.10;74.90;;;;;;5034839;28;20037;-79
2022/08/12 07:53:40;;;;;;;5.28;1.60;;;37.20;70.90;;;;;;5033782;28;20056;-79
2022/08/12 07:56:08;;;;;;;4.45;1.73;;;36.90;70.40;;;;;;5051764;28;20115;-79
2022/08/12 07:58:38;;;;;;;5.05;1.35;;;37.00;71.00;;;;;;5038687;28;20036;-79
2022/08/12 08:01:11;;;;;;;2.67;1.42;;;37.20;71.50;;;;;;5055518;28;20363;-80
2022/08/12 08:06:32;;;;;;;2.78;1.50;;;38.00;69.40;;;;;;5035476;28;20471;-80
2022/08/12 08:09:03;;;;;;;4.25;1.23;;;37.60;68.80;;;;;;5048179;28;20098;-80
2022/08/12 08:14:13;;;;;;;2.10;1.40;;;37.80;68.00;;;;;;5035311;28;20045;-80
2022/08/12 08:16:41;;;;;;;3.55;1.65;;;37.40;67.80;;;;;;5016284;28;20295;-79
2022/08/12 08:19:14;;;;;;;3.10;1.38;;;37.10;68.10;;;;;;5015813;28;20130;-79
2022/08/12 08:21:41;;;;;;;2.75;1.65;;;37.60;70.00;;;;;;5015536;28;20491;-79
2022/08/12 08:24:13;;;;;;;2.90;1.40;;;37.60;68.40;;;;;;5015623;28;20033;-79
2022/08/12 08:26:46;;;;;;;1.55;1.30;;;38.60;68.40;;;;;;5016720;28;20128;-79
2022/08/12 08:29:12;;;;;;;1.45;1.20;;;38.50;68.00;;;;;;5033508;28;20099;-79
2022/08/12 08:31:45;;;;;;;2.75;1.63;;;38.50;66.80;;;;;;5017940;28;20041;-79
2022/08/12 08:34:16;;;;;;;4.15;1.30;;;38.80;67.20;;;;;;5034941;28;20048;-80
2022/08/12 08:36:42;;;;;;;10.90;1.88;;;39.10;66.10;;;;;;5035190;28;20045;-79
2022/08/12 08:39:13;;;;;;;3.28;1.50;;;39.50;66.50;;;;;;5036614;28;20115;-80
2022/08/12 08:44:23;;;;;;;2.55;1.67;;;39.70;64.60;;;;;;5053929;28;20102;-80
2022/08/12 08:46:49;;;;;;;2.78;1.70;;;39.60;66.00;;;;;;5038139;28;20045;-80
2022/08/12 08:49:16;;;;;;;2.67;1.55;;;40.40;65.00;;;;;;5019590;28;20454;-80
2022/08/12 08:51:43;;;;;;;3.72;1.83;;;40.00;63.60;;;;;;5037464;28;20044;-80
2022/08/12 08:54:11;;;;;;;2.50;1.42;;;39.70;65.10;;;;;;5034120;28;20030;-80
2022/08/12 08:56:42;;;;;;;2.38;1.52;;;40.30;62.40;;;;;;5021262;28;20048;-80
2022/08/12 08:59:08;;;;;;;1.77;1.27;;;40.40;61.40;;;;;;5019827;28;20037;-80
2022/08/12 09:01:34;;;;;;;4.75;1.70;;;40.50;62.30;;;;;;5021513;28;20041;-80
2022/08/12 09:03:59;;;;;;;4.00;1.83;;;40.00;62.30;;;;;;5038261;28;20082;-80
2022/08/12 09:06:25;;;;;;;2.30;1.60;;;40.40;60.50;;;;;;5021558;28;20487;-80
2022/08/12 09:08:51;;;;;;;1.80;1.30;;;40.50;61.60;;;;;;5021650;28;20454;-80
2022/08/12 09:14:06;;;;;;;2.35;1.60;;;39.80;60.40;;;;;;5023456;28;20044;-80
2022/08/12 09:16:33;;;;;;;13.68;1.73;;;39.80;61.60;;;;;;5037121;28;20483;-80
2022/08/12 09:19:00;;;;;;;2.03;1.42;;;40.10;61.20;;;;;;5037501;28;20056;-80
2022/08/12 09:21:29;;;;;;;3.42;1.52;;;40.40;61.00;;;;;;5020889;28;20044;-80
2022/08/12 09:23:56;;;;;;;2.42;1.65;;;41.00;59.50;;;;;;5036674;28;20056;-80
2022/08/12 09:26:22;;;;;;;2.63;1.50;;;41.20;60.80;;;;;;5033664;28;20111;-80
2022/08/12 09:28:49;;;;;;;2.35;1.58;;;41.80;59.50;;;;;;5037384;28;20195;-80
2022/08/12 09:31:15;;;;;;;2.25;1.60;;;41.80;59.70;;;;;;5021380;28;20040;-80
2022/08/12 09:33:40;;;;;;;3.38;1.85;;;41.60;58.40;;;;;;5021173;28;20194;-80
2022/08/12 09:36:06;;;;;;;3.45;1.50;;;41.50;57.40;;;;;;5036420;28;20055;-80
2022/08/12 09:38:32;;;;;;;2.72;1.67;;;41.80;57.50;;;;;;5020708;28;20047;-80
2022/08/12 09:40:58;;;;;;;3.28;1.60;;;40.90;58.50;;;;;;5037065;28;20043;-81
2022/08/12 09:46:16;;;;;;;3.13;1.50;;;41.80;59.60;;;;;;5024053;28;20041;-82
2022/08/12 09:48:45;;;;;;;3.03;1.52;;;42.00;56.70;;;;;;5013122;28;20045;-82
2022/08/12 09:51:12;;;;;;;1.60;1.45;;;42.20;56.50;;;;;;5033844;28;20052;-81
2022/08/12 09:53:39;;;;;;;1.90;1.70;;;42.70;57.10;;;;;;5036499;28;20041;-82
2022/08/12 09:56:06;;;;;;;2.78;1.42;;;42.60;57.80;;;;;;5020828;28;20039;-82
2022/08/12 09:58:33;;;;;;;3.38;1.70;;;42.40;57.60;;;;;;5020615;28;20485;-81
2022/08/12 10:01:01;;;;;;;2.97;1.67;;;42.30;56.10;;;;;;5004634;28;20399;-81
2022/08/12 10:03:28;;;;;;;2.20;1.40;;;42.00;55.60;;;;;;5037115;28;20506;-81
2022/08/12 10:05:55;;;;;;;5.15;1.80;;;41.80;58.00;;;;;;5021126;28;20132;-81
2022/08/12 10:08:26;;;;;;;2.42;1.60;;;41.90;56.00;;;;;;5020933;28;20045;-81
2022/08/12 10:13:40;;;;;;;2.40;1.58;;;42.00;53.20;;;;;;5062662;28;20040;-82
2022/08/12 10:16:32;;;;;;;1.88;1.52;;;42.30;55.60;;;;;;5054111;28;20054;-82
2022/08/12 10:19:04;;;;;;;2.28;1.60;;;42.00;54.10;;;;;;5033347;28;20435;-82
2022/08/12 10:21:39;;;;;;;2.72;1.70;;;42.20;54.40;;;;;;5010871;28;20052;-82
2022/08/12 10:24:20;;;;;;;2.17;1.40;;;42.50;53.80;;;;;;5017050;28;20065;-83
2022/08/12 10:29:41;;;;;;;4.43;2.17;;;42.80;54.50;;;;;;5016692;28;20399;-82
2022/08/12 10:32:24;;;;;;;2.72;1.95;;;43.20;54.30;;;;;;5000265;28;20070;-82
2022/08/12 10:34:50;;;;;;;3.87;1.53;;;43.00;51.60;;;;;;5000405;28;20504;-82
2022/08/12 10:37:16;;;;;;;2.38;1.60;;;42.10;52.60;;;;;;5000467;28;20052;-82
2022/08/12 10:39:43;;;;;;;5.28;1.58;;;42.40;53.50;;;;;;5036135;28;20033;-82
2022/08/12 10:44:59;;;;;;;3.35;1.60;;;42.60;54.70;;;;;;5028244;28;20076;-82
2022/08/12 10:47:33;;;;;;;3.28;1.50;;;42.50;52.00;;;;;;5025159;28;20487;-81
2022/08/12 10:50:00;;;;;;;1.90;1.35;;;41.90;52.20;;;;;;5031857;28;20041;-81
2022/08/12 10:52:29;;;;;;;2.85;1.90;;;42.20;53.10;;;;;;5027440;28;20051;-81
2022/08/12 10:54:56;;;;;;;4.97;2.00;;;42.20;53.40;;;;;;5016541;28;20370;-81
2022/08/12 10:57:26;;;;;;;1.77;1.45;;;41.80;55.00;;;;;;5025118;28;20092;-81
2022/08/12 10:59:58;;;;;;;1.58;1.40;;;41.90;53.00;;;;;;5003693;28;20033;-81
2022/08/12 11:02:25;;;;;;;2.60;1.48;;;41.30;51.60;;;;;;5003995;28;20041;-81
2022/08/12 11:04:58;;;;;;;2.95;1.40;;;41.00;52.60;;;;;;4994090;28;20133;-81
2022/08/12 11:07:25;;;;;;;2.47;1.73;;;40.90;54.90;;;;;;5010515;28;20045;-81
2022/08/12 11:09:52;;;;;;;3.33;2.45;;;40.50;53.40;;;;;;5032085;28;20137;-81
2022/08/12 11:12:18;;;;;;;1.95;1.40;;;40.50;54.80;;;;;;5015977;28;20038;-81
2022/08/12 11:14:44;;;;;;;2.33;1.88;;;40.60;54.80;;;;;;4999687;28;20120;-81
2022/08/12 11:17:12;;;;;;;1.88;1.40;;;40.90;55.30;;;;;;5023716;28;20464;-81
2022/08/12 11:19:40;;;;;;;3.25;1.70;;;40.70;52.80;;;;;;5036195;28;20072;-81
2022/08/12 11:22:07;;;;;;;2.08;1.58;;;40.70;52.00;;;;;;5035994;28;20112;-82
2022/08/12 11:24:33;;;;;;;2.65;1.60;;;40.20;54.00;;;;;;5019463;28;20079;-82
2022/08/12 11:27:01;;;;;;;2.88;1.88;;;40.30;54.50;;;;;;5035653;28;20041;-82
2022/08/12 11:29:28;;;;;;;2.90;1.80;;;40.30;54.30;;;;;;5052673;28;20075;-82
2022/08/12 11:31:54;;;;;;;1.75;1.30;;;40.90;54.20;;;;;;5035840;28;20520;-82
2022/08/12 11:34:20;;;;;;;2.75;1.70;;;41.40;53.60;;;;;;5035716;28;20033;-82
2022/08/12 11:36:55;;;;;;;3.08;2.35;;;41.60;52.90;;;;;;5035995;28;20045;-82
2022/08/12 11:39:21;;;;;;;4.10;1.55;;;41.80;54.40;;;;;;5019097;28;20399;-81
2022/08/12 11:41:47;;;;;;;1.80;1.45;;;41.20;53.30;;;;;;5035163;28;20487;-81
2022/08/12 11:44:13;;;;;;;3.17;1.92;;;41.00;52.60;;;;;;5035462;28;20037;-80
2022/08/12 11:46:40;;;;;;;4.07;1.50;;;40.30;53.00;;;;;;5035421;28;20044;-81
2022/08/12 11:49:07;;;;;;;2.78;1.52;;;39.80;52.70;;;;;;5035390;28;20099;-81
2022/08/12 11:51:34;;;;;;;4.70;1.77;;;39.60;53.10;;;;;;5035919;28;20467;-81
2022/08/12 11:54:00;;;;;;;2.28;1.55;;;39.60;53.10;;;;;;5036163;28;20076;-82
2022/08/12 11:56:27;;;;;;;2.92;1.50;;;39.30;54.50;;;;;;5035703;28;20106;-82
2022/08/12 11:58:54;;;;;;;3.05;1.60;;;38.80;54.70;;;;;;5035770;28;20076;-82
2022/08/12 12:01:19;;;;;;;2.95;1.60;;;39.20;56.60;;;;;;5019179;28;20069;-83
2022/08/12 12:03:45;;;;;;;1.88;1.50;;;39.30;55.40;;;;;;5018979;28;20127;-82
2022/08/12 12:06:12;;;;;;;2.08;1.65;;;39.10;54.40;;;;;;5035186;28;20056;-83
2022/08/12 12:08:37;;;;;;;3.08;1.48;;;38.80;54.50;;;;;;5019295;28;20112;-82
2022/08/12 12:11:03;;;;;;;3.13;1.67;;;38.80;55.10;;;;;;5035517;28;20037;-81
2022/08/12 12:13:29;;;;;;;2.05;1.70;;;38.70;57.60;;;;;;5035418;28;20045;-81
2022/08/12 12:15:55;;;;;;;2.38;1.83;;;38.30;54.20;;;;;;5035529;28;20064;-81
2022/08/12 12:18:28;;;;;;;3.17;1.60;;;38.10;53.90;;;;;;5033587;28;20061;-81
2022/08/12 12:20:56;;;;;;;2.97;1.35;;;38.40;54.50;;;;;;5039138;28;20098;-81
2022/08/12 12:23:25;;;;;;;2.85;1.48;;;38.40;57.20;;;;;;5039505;28;20051;-81
2022/08/12 12:25:51;;;;;;;2.45;1.70;;;38.70;54.90;;;;;;5038957;28;20127;-81
2022/08/12 12:28:17;;;;;;;2.95;1.80;;;38.90;55.40;;;;;;5030491;28;20113;-82
2022/08/12 12:30:43;;;;;;;2.40;1.65;;;38.70;56.70;;;;;;5018974;28;20123;-82
2022/08/12 12:33:10;;;;;;;2.33;1.40;;;38.50;54.60;;;;;;4986403;28;20045;-82
2022/08/12 12:35:37;;;;;;;4.32;1.60;;;38.20;54.70;;;;;;5018809;28;20038;-83
2022/08/12 12:38:05;;;;;;;2.55;1.60;;;37.70;55.40;;;;;;5019110;28;20455;-82
2022/08/12 12:40:32;;;;;;;3.88;1.90;;;37.50;56.80;;;;;;5018825;28;20040;-82
2022/08/12 12:42:59;;;;;;;2.03;1.63;;;37.80;54.60;;;;;;5018576;28;20472;-82
2022/08/12 12:45:26;;;;;;;1.48;1.23;;;37.60;53.90;;;;;;5002519;28;20048;-82
2022/08/12 12:48:05;;;;;;;2.53;1.50;;;37.60;56.30;;;;;;5019125;28;20414;-82
2022/08/12 12:50:39;;;;;;;3.00;1.50;;;37.70;56.40;;;;;;5002655;28;20452;-82
2022/08/12 12:53:07;;;;;;;1.67;1.38;;;37.90;55.20;;;;;;5018955;28;20094;-82
2022/08/12 12:55:36;;;;;;;4.30;1.70;;;38.00;54.90;;;;;;5018791;28;20357;-82
2022/08/12 12:58:04;;;;;;;2.40;1.60;;;37.90;55.70;;;;;;5018605;28;20041;-82
2022/08/12 13:00:34;;;;;;;1.95;1.60;;;37.80;54.90;;;;;;5002670;28;20092;-81
2022/08/12 13:02:59;;;;;;;3.17;1.50;;;37.50;55.30;;;;;;5002147;28;20120;-81
2022/08/12 13:05:25;;;;;;;2.50;1.45;;;37.40;54.30;;;;;;5002244;28;20184;-81
2022/08/12 13:07:59;;;;;;;1.52;1.40;;;37.40;57.50;;;;;;5018528;28;20049;-81
2022/08/12 13:10:25;;;;;;;3.03;1.60;;;37.20;55.70;;;;;;5018540;28;20049;-81
2022/08/12 13:12:53;;;;;;;2.17;1.63;;;37.10;55.90;;;;;;5018597;28;20064;-81
2022/08/12 13:15:19;;;;;;;1.90;1.42;;;36.80;57.20;;;;;;5010045;28;20495;-80
2022/08/12 13:17:50;;;;;;;1.85;1.60;;;36.80;54.60;;;;;;5037757;28;20072;-82
2022/08/12 13:20:18;;;;;;;5.45;1.88;;;36.80;55.10;;;;;;5038167;28;20040;-81
2022/08/12 13:22:45;;;;;;;4.38;1.60;;;36.80;56.40;;;;;;5038164;28;20371;-81
2022/08/12 13:25:13;;;;;;;2.30;1.88;;;36.70;55.80;;;;;;5037938;28;20091;-81
2022/08/12 13:27:44;;;;;;;2.17;1.40;;;36.50;54.50;;;;;;5037394;28;20045;-81
2022/08/12 13:30:15;;;;;;;3.17;1.45;;;36.60;57.40;;;;;;5037673;28;20044;-81
2022/08/12 13:32:49;;;;;;;2.75;1.17;;;36.50;56.60;;;;;;5021228;28;20049;-81
2022/08/12 13:35:15;;;;;;;2.47;1.50;;;36.20;56.00;;;;;;5022190;28;20055;-81
2022/08/12 13:37:52;;;;;;;3.72;1.60;;;36.10;55.70;;;;;;5038210;28;20110;-81
2022/08/12 13:40:19;;;;;;;2.35;1.60;;;35.90;55.10;;;;;;5037667;28;20121;-81
2022/08/12 13:42:47;;;;;;;1.48;1.17;;;36.00;57.70;;;;;;5037765;28;20529;-81
2022/08/12 13:45:14;;;;;;;1.70;1.20;;;36.20;57.70;;;;;;5037612;28;20072;-81
2022/08/12 13:47:55;;;;;;;2.13;1.48;;;36.40;57.20;;;;;;5054359;28;20056;-81
2022/08/12 13:50:31;;;;;;;2.03;1.40;;;36.40;56.50;;;;;;5037846;28;20044;-81
2022/08/12 13:53:01;;;;;;;1.95;1.55;;;36.20;56.30;;;;;;5021417;28;20179;-81
2022/08/12 13:55:28;;;;;;;1.75;1.27;;;36.00;57.00;;;;;;5021750;28;20615;-81
2022/08/12 13:57:54;;;;;;;2.95;1.70;;;35.90;59.10;;;;;;5037280;28;20048;-81
2022/08/12 14:00:21;;;;;;;3.95;1.70;;;35.80;56.70;;;;;;5020851;28;20071;-81
2022/08/12 14:02:47;;;;;;;2.28;1.42;;;35.70;59.80;;;;;;5037110;28;20033;-81
2022/08/12 14:05:16;;;;;;;2.33;1.58;;;35.60;57.40;;;;;;5037090;28;20463;-81
2022/08/12 14:07:56;;;;;;;1.70;1.30;;;35.50;55.80;;;;;;5037397;28;20114;-80
2022/08/12 14:10:35;;;;;;;2.97;1.85;;;35.40;59.10;;;;;;5036921;28;20044;-80
2022/08/12 14:13:22;;;;;;;1.73;1.40;;;35.50;61.50;;;;;;5036991;28;20048;-80
2022/08/12 14:15:52;;;;;;;2.67;1.58;;;35.50;62.20;;;;;;5023110;28;20041;-80
2022/08/12 14:18:20;;;;;;;1.85;1.25;;;35.60;62.10;;;;;;5020970;28;20045;-80
2022/08/12 14:21:00;;;;;;;2.83;1.60;;;35.60;62.30;;;;;;5017028;28;20041;-80
2022/08/12 14:23:29;;;;;;;1.98;1.40;;;35.50;63.40;;;;;;5000846;28;20103;-82
2022/08/12 14:25:59;;;;;;;1.95;1.38;;;35.20;61.80;;;;;;5016909;28;20440;-82
2022/08/12 14:28:27;;;;;;;3.05;1.80;;;35.20;63.10;;;;;;4985599;28;20133;-82
2022/08/12 14:30:59;;;;;;;2.10;1.70;;;35.10;61.80;;;;;;5016876;28;20115;-82
2022/08/12 14:33:34;;;;;;;2.28;1.40;;;35.10;63.30;;;;;;5016906;28;20045;-82
2022/08/12 14:36:02;;;;;;;3.63;1.83;;;34.90;64.30;;;;;;5016620;28;20056;-82
2022/08/12 14:38:38;;;;;;;2.50;1.60;;;34.90;63.20;;;;;;5000733;28;20095;-82
2022/08/12 14:41:14;;;;;;;2.95;1.30;;;34.80;64.60;;;;;;4985645;28;20037;-82
2022/08/12 14:43:42;;;;;;;2.97;1.55;;;34.70;63.30;;;;;;5017042;28;20042;-82
2022/08/12 14:46:11;;;;;;;2.30;1.48;;;34.60;63.10;;;;;;5000767;28;20045;-82
2022/08/12 14:48:40;;;;;;;4.25;1.70;;;34.50;63.40;;;;;;5016861;28;20047;-82
2022/08/12 14:51:06;;;;;;;3.15;1.45;;;34.40;63.70;;;;;;5034792;28;20041;-82
2022/08/12 14:53:32;;;;;;;1.75;1.23;;;34.30;64.60;;;;;;5000387;28;20103;-82
2022/08/12 14:56:04;;;;;;;1.17;1.05;;;34.30;65.30;;;;;;5001287;28;20077;-82